CA-0483 weather

CLOSED Armour Heights Field
Toronto, Ontario, Canada

Public forecast

Using degrees Celsius for public forecast. Weather courtesy of forecast.io.

Closest aviation weather report (METAR) to Armour Heights Field

Closest report is Billy Bishop Toronto City Centre Airport, 6.9 nm (12.8 km) S. Retrieved 2020/05/27 15:00 UTC (45 minutes ago):

CYTZ 271500Z AUTO 17004KT 130V210 9SM CLR 24/16 A3008 RMK SLP186 DENSITY ALT 1200FT

Closest aviation forecast (TAF) to Armour Heights Field

Closest forecast is Billy Bishop Toronto City Centre Airport, 6.9 nm (12.8 km) S. Retrieved 2020/05/27 14:55 UTC (50 minutes ago):

TAF CYTZ 271345Z 2714/2814 VRB03KT P6SM BKN250 BECMG 2714/2716 17010KT FM280300 12005KT P6SM SCT160 BKN250 FM280800 14005KT P6SM SCT060 BKN150 FM281200 12005KT P6SM BKN060 OVC120 RMK FCST BASED ON AUTO OBS NXT FCST BY 272000Z